sensor_id;sensor_type;location;lat;lon;timestamp;pressure;altitude;pressure_sealevel;temperature;humidity
78431;BME280;67727;50.236;22.452;2023-04-15T00:00:45;98687.33;;;10.59;80.17
78431;BME280;67727;50.236;22.452;2023-04-15T00:03:14;98682.56;;;10.57;80.16
78431;BME280;67727;50.236;22.452;2023-04-15T00:05:41;98683.33;;;10.52;80.23
78431;BME280;67727;50.236;22.452;2023-04-15T00:08:08;98688.58;;;10.50;80.53
78431;BME280;67727;50.236;22.452;2023-04-15T00:10:35;98681.63;;;10.48;80.24
78431;BME280;67727;50.236;22.452;2023-04-15T00:13:02;98676.74;;;10.47;80.53
78431;BME280;67727;50.236;22.452;2023-04-15T00:15:29;98677.16;;;10.47;80.65
78431;BME280;67727;50.236;22.452;2023-04-15T00:17:57;98674.63;;;10.47;80.40
78431;BME280;67727;50.236;22.452;2023-04-15T00:20:24;98679.06;;;10.48;80.58
78431;BME280;67727;50.236;22.452;2023-04-15T00:22:50;98689.21;;;10.49;80.63
78431;BME280;67727;50.236;22.452;2023-04-15T00:25:17;98686.70;;;10.49;80.40
78431;BME280;67727;50.236;22.452;2023-04-15T00:27:44;98686.08;;;10.49;80.64
78431;BME280;67727;50.236;22.452;2023-04-15T00:30:11;98693.13;;;10.49;80.32
78431;BME280;67727;50.236;22.452;2023-04-15T00:32:38;98697.65;;;10.47;80.59
78431;BME280;67727;50.236;22.452;2023-04-15T00:35:05;98701.66;;;10.45;80.97
78431;BME280;67727;50.236;22.452;2023-04-15T00:37:34;98705.59;;;10.43;80.83
78431;BME280;67727;50.236;22.452;2023-04-15T00:40:02;98706.73;;;10.41;81.11
78431;BME280;67727;50.236;22.452;2023-04-15T00:42:31;98709.41;;;10.42;80.94
78431;BME280;67727;50.236;22.452;2023-04-15T00:44:58;98705.91;;;10.41;81.06
78431;BME280;67727;50.236;22.452;2023-04-15T00:47:26;98706.55;;;10.37;81.20
78431;BME280;67727;50.236;22.452;2023-04-15T00:49:55;98704.05;;;10.33;81.27
78431;BME280;67727;50.236;22.452;2023-04-15T00:52:22;98699.45;;;10.32;81.44
78431;BME280;67727;50.236;22.452;2023-04-15T00:54:49;98699.33;;;10.32;81.68
78431;BME280;67727;50.236;22.452;2023-04-15T00:57:19;98694.40;;;10.35;81.48
78431;BME280;67727;50.236;22.452;2023-04-15T00:59:47;98692.91;;;10.37;81.31
78431;BME280;67727;50.236;22.452;2023-04-15T01:02:15;98687.57;;;10.40;81.28
78431;BME280;67727;50.236;22.452;2023-04-15T01:04:42;98682.56;;;10.42;81.13
78431;BME280;67727;50.236;22.452;2023-04-15T01:07:09;98686.08;;;10.45;80.96
78431;BME280;67727;50.236;22.452;2023-04-15T01:09:35;98696.52;;;10.46;81.06
78431;BME280;67727;50.236;22.452;2023-04-15T01:12:03;98708.14;;;10.46;80.78
78431;BME280;67727;50.236;22.452;2023-04-15T01:14:30;98715.59;;;10.47;80.95
78431;BME280;67727;50.236;22.452;2023-04-15T01:16:59;98712.08;;;10.48;80.95
78431;BME280;67727;50.236;22.452;2023-04-15T01:19:27;98707.06;;;10.49;81.02
78431;BME280;67727;50.236;22.452;2023-04-15T01:21:54;98704.48;;;10.50;80.88
78431;BME280;67727;50.236;22.452;2023-04-15T01:24:21;98700.80;;;10.50;81.15
78431;BME280;67727;50.236;22.452;2023-04-15T01:26:48;98699.69;;;10.49;80.84
78431;BME280;67727;50.236;22.452;2023-04-15T01:29:16;98697.13;;;10.49;80.78
78431;BME280;67727;50.236;22.452;2023-04-15T01:31:54;98699.14;;;10.52;80.61
78431;BME280;67727;50.236;22.452;2023-04-15T01:34:21;98705.09;;;10.53;80.71
78431;BME280;67727;50.236;22.452;2023-04-15T01:36:48;98710.23;;;10.53;80.86
78431;BME280;67727;50.236;22.452;2023-04-15T01:39:15;98708.80;;;10.55;80.61
78431;BME280;67727;50.236;22.452;2023-04-15T01:41:42;98701.51;;;10.56;80.71
78431;BME280;67727;50.236;22.452;2023-04-15T01:44:09;98701.85;;;10.58;80.29
78431;BME280;67727;50.236;22.452;2023-04-15T01:46:36;98705.23;;;10.59;79.87
78431;BME280;67727;50.236;22.452;2023-04-15T01:49:03;98707.55;;;10.60;79.87
78431;BME280;67727;50.236;22.452;2023-04-15T01:51:30;98704.95;;;10.63;79.90
78431;BME280;67727;50.236;22.452;2023-04-15T01:53:57;98706.75;;;10.65;79.61
78431;BME280;67727;50.236;22.452;2023-04-15T01:56:24;98707.97;;;10.67;79.54
78431;BME280;67727;50.236;22.452;2023-04-15T01:58:51;98709.56;;;10.67;79.73
78431;BME280;67727;50.236;22.452;2023-04-15T02:01:18;98706.06;;;10.65;79.84
78431;BME280;67727;50.236;22.452;2023-04-15T02:03:45;98708.46;;;10.65;79.48
78431;BME280;67727;50.236;22.452;2023-04-15T02:06:13;98709.65;;;10.65;79.44
78431;BME280;67727;50.236;22.452;2023-04-15T02:08:39;98710.82;;;10.64;79.49
78431;BME280;67727;50.236;22.452;2023-04-15T02:11:06;98710.61;;;10.62;79.94
78431;BME280;67727;50.236;22.452;2023-04-15T02:13:33;98709.88;;;10.58;79.72
78431;BME280;67727;50.236;22.452;2023-04-15T02:16:00;98712.16;;;10.56;79.84
78431;BME280;67727;50.236;22.452;2023-04-15T02:18:27;98715.77;;;10.54;79.96
78431;BME280;67727;50.236;22.452;2023-04-15T02:20:54;98718.66;;;10.52;80.21
78431;BME280;67727;50.236;22.452;2023-04-15T02:23:23;98713.11;;;10.50;80.44
78431;BME280;67727;50.236;22.452;2023-04-15T02:25:50;98709.56;;;10.46;80.37
78431;BME280;67727;50.236;22.452;2023-04-15T02:28:17;98708.02;;;10.46;80.40
78431;BME280;67727;50.236;22.452;2023-04-15T02:30:46;98703.65;;;10.46;80.59
78431;BME280;67727;50.236;22.452;2023-04-15T02:33:13;98703.77;;;10.46;80.62
78431;BME280;67727;50.236;22.452;2023-04-15T02:35:40;98699.12;;;10.48;80.61
78431;BME280;67727;50.236;22.452;2023-04-15T02:38:10;98694.52;;;10.49;80.84
78431;BME280;67727;50.236;22.452;2023-04-15T02:40:37;98693.83;;;10.48;80.78
78431;BME280;67727;50.236;22.452;2023-04-15T02:43:04;98691.73;;;10.47;80.36
78431;BME280;67727;50.236;22.452;2023-04-15T02:45:32;98692.44;;;10.48;80.80
78431;BME280;67727;50.236;22.452;2023-04-15T02:47:59;98693.54;;;10.48;80.70
78431;BME280;67727;50.236;22.452;2023-04-15T02:50:31;98694.39;;;10.49;80.76
78431;BME280;67727;50.236;22.452;2023-04-15T02:52:58;98697.41;;;10.48;80.55
78431;BME280;67727;50.236;22.452;2023-04-15T02:55:26;98702.83;;;10.48;80.68
78431;BME280;67727;50.236;22.452;2023-04-15T02:57:53;98708.62;;;10.45;80.89
78431;BME280;67727;50.236;22.452;2023-04-15T03:00:22;98706.98;;;10.43;80.54
78431;BME280;67727;50.236;22.452;2023-04-15T03:02:50;98707.45;;;10.42;80.75
78431;BME280;67727;50.236;22.452;2023-04-15T03:05:21;98709.09;;;10.42;81.16
78431;BME280;67727;50.236;22.452;2023-04-15T03:07:51;98708.23;;;10.41;80.87
78431;BME280;67727;50.236;22.452;2023-04-15T03:10:19;98708.11;;;10.41;80.92
78431;BME280;67727;50.236;22.452;2023-04-15T03:12:46;98709.94;;;10.41;81.00
78431;BME280;67727;50.236;22.452;2023-04-15T03:15:13;98709.53;;;10.40;81.07
78431;BME280;67727;50.236;22.452;2023-04-15T03:17:41;98710.23;;;10.40;80.79
78431;BME280;67727;50.236;22.452;2023-04-15T03:20:08;98715.13;;;10.39;80.81
78431;BME280;67727;50.236;22.452;2023-04-15T03:22:35;98719.00;;;10.38;80.92
78431;BME280;67727;50.236;22.452;2023-04-15T03:25:02;98724.58;;;10.37;80.72
78431;BME280;67727;50.236;22.452;2023-04-15T03:27:29;98730.36;;;10.37;81.09
78431;BME280;67727;50.236;22.452;2023-04-15T03:29:56;98732.94;;;10.38;80.85
78431;BME280;67727;50.236;22.452;2023-04-15T03:32:23;98734.69;;;10.38;80.94
78431;BME280;67727;50.236;22.452;2023-04-15T03:34:50;98737.70;;;10.38;80.79
78431;BME280;67727;50.236;22.452;2023-04-15T03:37:16;98735.80;;;10.36;80.86
78431;BME280;67727;50.236;22.452;2023-04-15T03:39:45;98735.59;;;10.36;80.82
78431;BME280;67727;50.236;22.452;2023-04-15T03:44:43;98735.05;;;10.40;80.45
78431;BME280;67727;50.236;22.452;2023-04-15T03:47:14;98739.37;;;10.41;80.38
78431;BME280;67727;50.236;22.452;2023-04-15T03:49:52;98737.70;;;10.40;80.74
78431;BME280;67727;50.236;22.452;2023-04-15T03:52:21;98735.67;;;10.39;80.78
78431;BME280;67727;50.236;22.452;2023-04-15T03:54:51;98736.80;;;10.38;80.91
78431;BME280;67727;50.236;22.452;2023-04-15T03:57:22;98739.90;;;10.37;80.94
78431;BME280;67727;50.236;22.452;2023-04-15T03:59:49;98748.21;;;10.38;80.76
78431;BME280;67727;50.236;22.452;2023-04-15T04:02:19;98743.86;;;10.41;80.54
78431;BME280;67727;50.236;22.452;2023-04-15T04:04:49;98747.79;;;10.43;80.30
78431;BME280;67727;50.236;22.452;2023-04-15T04:07:18;98744.67;;;10.42;80.35
78431;BME280;67727;50.236;22.452;2023-04-15T04:09:50;98751.16;;;10.43;80.50
78431;BME280;67727;50.236;22.452;2023-04-15T04:12:20;98753.15;;;10.41;80.24
78431;BME280;67727;50.236;22.452;2023-04-15T04:14:52;98757.23;;;10.40;80.33
78431;BME280;67727;50.236;22.452;2023-04-15T04:17:23;98759.02;;;10.40;80.08
78431;BME280;67727;50.236;22.452;2023-04-15T04:20:01;98761.17;;;10.42;80.40
78431;BME280;67727;50.236;22.452;2023-04-15T04:22:30;98759.08;;;10.43;80.19
78431;BME280;67727;50.236;22.452;2023-04-15T04:25:00;98758.71;;;10.45;80.31
78431;BME280;67727;50.236;22.452;2023-04-15T04:27:34;98759.48;;;10.45;80.08
78431;BME280;67727;50.236;22.452;2023-04-15T04:30:20;98757.61;;;10.45;80.03
78431;BME280;67727;50.236;22.452;2023-04-15T04:32:54;98763.16;;;10.43;79.91
78431;BME280;67727;50.236;22.452;2023-04-15T04:35:24;98767.92;;;10.43;80.03
78431;BME280;67727;50.236;22.452;2023-04-15T04:37:55;98775.95;;;10.44;79.99
78431;BME280;67727;50.236;22.452;2023-04-15T04:40:24;98773.66;;;10.42;80.00
78431;BME280;67727;50.236;22.452;2023-04-15T04:43:01;98768.63;;;10.42;80.20
78431;BME280;67727;50.236;22.452;2023-04-15T04:45:28;98769.32;;;10.42;79.98
78431;BME280;67727;50.236;22.452;2023-04-15T04:47:57;98765.78;;;10.42;80.31
78431;BME280;67727;50.236;22.452;2023-04-15T04:50:38;98759.41;;;10.42;80.63
78431;BME280;67727;50.236;22.452;2023-04-15T04:53:13;98766.43;;;10.42;80.27
78431;BME280;67727;50.236;22.452;2023-04-15T04:55:51;98761.17;;;10.42;80.60
78431;BME280;67727;50.236;22.452;2023-04-15T04:58:22;98771.77;;;10.43;80.76
78431;BME280;67727;50.236;22.452;2023-04-15T05:01:00;98770.58;;;10.44;80.48
78431;BME280;67727;50.236;22.452;2023-04-15T05:03:33;98769.96;;;10.46;80.28
78431;BME280;67727;50.236;22.452;2023-04-15T05:06:04;98768.13;;;10.47;80.72
78431;BME280;67727;50.236;22.452;2023-04-15T05:08:38;98767.27;;;10.47;80.65
78431;BME280;67727;50.236;22.452;2023-04-15T05:11:15;98775.74;;;10.47;80.45
78431;BME280;67727;50.236;22.452;2023-04-15T05:13:50;98782.94;;;10.50;80.24
78431;BME280;67727;50.236;22.452;2023-04-15T05:16:23;98784.88;;;10.51;80.40
78431;BME280;67727;50.236;22.452;2023-04-15T05:19:14;98790.29;;;10.54;80.90
78431;BME280;67727;50.236;22.452;2023-04-15T05:21:52;98790.48;;;10.59;80.67
78431;BME280;67727;50.236;22.452;2023-04-15T05:24:19;98798.16;;;10.63;80.67
78431;BME280;67727;50.236;22.452;2023-04-15T05:26:50;98807.73;;;10.69;80.84
78431;BME280;67727;50.236;22.452;2023-04-15T05:29:23;98804.09;;;10.71;80.61
78431;BME280;67727;50.236;22.452;2023-04-15T05:31:55;98798.11;;;10.69;80.75
78431;BME280;67727;50.236;22.452;2023-04-15T05:34:33;98794.12;;;10.67;80.15
78431;BME280;67727;50.236;22.452;2023-04-15T05:37:03;98792.20;;;10.68;80.26
78431;BME280;67727;50.236;22.452;2023-04-15T05:39:39;98789.23;;;10.68;80.54
78431;BME280;67727;50.236;22.452;2023-04-15T05:42:14;98792.34;;;10.70;80.79
78431;BME280;67727;50.236;22.452;2023-04-15T05:44:57;98796.26;;;10.72;80.51
78431;BME280;67727;50.236;22.452;2023-04-15T05:47:33;98799.03;;;10.73;80.80
78431;BME280;67727;50.236;22.452;2023-04-15T05:50:14;98798.43;;;10.76;80.52
78431;BME280;67727;50.236;22.452;2023-04-15T05:53:05;98799.27;;;10.82;80.59
78431;BME280;67727;50.236;22.452;2023-04-15T05:55:38;98797.36;;;10.85;80.29
78431;BME280;67727;50.236;22.452;2023-04-15T05:58:05;98796.30;;;10.88;80.62
78431;BME280;67727;50.236;22.452;2023-04-15T06:00:40;98794.50;;;10.88;80.78
78431;BME280;67727;50.236;22.452;2023-04-15T06:03:26;98795.48;;;10.88;80.73
78431;BME280;67727;50.236;22.452;2023-04-15T06:05:59;98796.75;;;10.90;80.39
78431;BME280;67727;50.236;22.452;2023-04-15T06:08:33;98800.11;;;10.94;80.79
78431;BME280;67727;50.236;22.452;2023-04-15T06:11:13;98798.08;;;10.98;80.55
78431;BME280;67727;50.236;22.452;2023-04-15T06:14:03;98798.50;;;11.04;80.57
78431;BME280;67727;50.236;22.452;2023-04-15T06:16:40;98802.10;;;11.12;80.65
78431;BME280;67727;50.236;22.452;2023-04-15T06:19:18;98797.14;;;11.24;80.80
78431;BME280;67727;50.236;22.452;2023-04-15T06:22:22;98801.46;;;11.32;80.54
78431;BME280;67727;50.236;22.452;2023-04-15T06:25:10;98812.05;;;11.38;80.71
78431;BME280;67727;50.236;22.452;2023-04-15T06:27:59;98820.16;;;11.40;80.33
78431;BME280;67727;50.236;22.452;2023-04-15T06:30:33;98817.23;;;11.41;80.01
78431;BME280;67727;50.236;22.452;2023-04-15T06:33:28;98818.50;;;11.44;79.90
78431;BME280;67727;50.236;22.452;2023-04-15T06:36:04;98819.44;;;11.51;80.10
78431;BME280;67727;50.236;22.452;2023-04-15T06:38:41;98819.77;;;11.59;80.00
78431;BME280;67727;50.236;22.452;2023-04-15T06:41:08;98817.15;;;11.67;79.72
78431;BME280;67727;50.236;22.452;2023-04-15T06:43:38;98821.11;;;11.75;79.97
78431;BME280;67727;50.236;22.452;2023-04-15T06:46:10;98828.80;;;11.82;79.77
78431;BME280;67727;50.236;22.452;2023-04-15T06:48:39;98829.98;;;11.89;79.50
78431;BME280;67727;50.236;22.452;2023-04-15T06:51:13;98831.90;;;11.94;79.14
78431;BME280;67727;50.236;22.452;2023-04-15T06:53:52;98833.11;;;12.01;78.48
78431;BME280;67727;50.236;22.452;2023-04-15T06:56:25;98829.10;;;12.06;77.60
78431;BME280;67727;50.236;22.452;2023-04-15T06:58:54;98830.17;;;12.10;77.13
78431;BME280;67727;50.236;22.452;2023-04-15T07:01:25;98835.30;;;12.12;76.24
78431;BME280;67727;50.236;22.452;2023-04-15T07:03:55;98836.39;;;12.13;75.85
78431;BME280;67727;50.236;22.452;2023-04-15T07:06:34;98837.42;;;12.15;75.83
78431;BME280;67727;50.236;22.452;2023-04-15T07:09:01;98846.00;;;12.19;75.69
78431;BME280;67727;50.236;22.452;2023-04-15T07:11:40;98849.59;;;12.24;75.27
78431;BME280;67727;50.236;22.452;2023-04-15T07:14:14;98856.61;;;12.31;75.00
78431;BME280;67727;50.236;22.452;2023-04-15T07:16:44;98857.41;;;12.35;74.66
78431;BME280;67727;50.236;22.452;2023-04-15T08:13:54;98883.37;;;13.73;66.89
78431;BME280;67727;50.236;22.452;2023-04-15T08:16:41;98884.31;;;13.78;65.30
78431;BME280;67727;50.236;22.452;2023-04-15T08:19:12;98880.30;;;13.93;66.73
78431;BME280;67727;50.236;22.452;2023-04-15T08:22:18;98885.43;;;14.16;65.69
78431;BME280;67727;50.236;22.452;2023-04-15T08:25:08;98886.50;;;14.41;64.93
78431;BME280;67727;50.236;22.452;2023-04-15T08:28:16;98887.65;;;14.63;64.70
78431;BME280;67727;50.236;22.452;2023-04-15T08:31:01;98891.34;;;14.74;61.80
78431;BME280;67727;50.236;22.452;2023-04-15T08:33:42;98890.80;;;14.80;63.23
78431;BME280;67727;50.236;22.452;2023-04-15T08:36:18;98895.72;;;14.91;63.50
78431;BME280;67727;50.236;22.452;2023-04-15T08:38:47;98896.52;;;15.01;63.00
78431;BME280;67727;50.236;22.452;2023-04-15T08:42:10;98897.77;;;15.04;62.58
78431;BME280;67727;50.236;22.452;2023-04-15T08:44:21;98901.35;;;15.08;62.54
78431;BME280;67727;50.236;22.452;2023-04-15T08:47:12;98898.95;;;15.10;61.81
78431;BME280;67727;50.236;22.452;2023-04-15T08:49:55;98902.23;;;15.07;60.68
78431;BME280;67727;50.236;22.452;2023-04-15T08:52:44;98902.81;;;15.03;59.86
78431;BME280;67727;50.236;22.452;2023-04-15T08:55:21;98901.86;;;14.96;59.91
78431;BME280;67727;50.236;22.452;2023-04-15T08:57:55;98896.59;;;14.84;59.94
78431;BME280;67727;50.236;22.452;2023-04-15T09:00:31;98895.08;;;14.70;60.28
78431;BME280;67727;50.236;22.452;2023-04-15T09:03:10;98892.42;;;14.79;61.07
78431;BME280;67727;50.236;22.452;2023-04-15T09:06:11;98898.77;;;14.95;61.63
78431;BME280;67727;50.236;22.452;2023-04-15T09:09:00;98903.11;;;15.02;61.28
78431;BME280;67727;50.236;22.452;2023-04-15T09:11:34;98903.13;;;15.07;62.13
78431;BME280;67727;50.236;22.452;2023-04-15T09:14:07;98908.02;;;15.13;61.45
78431;BME280;67727;50.236;22.452;2023-04-15T09:17:03;98907.69;;;15.10;60.52
78431;BME280;67727;50.236;22.452;2023-04-15T09:19:36;98903.06;;;14.96;60.65
78431;BME280;67727;50.236;22.452;2023-04-15T09:22:16;98905.11;;;15.05;62.84
78431;BME280;67727;50.236;22.452;2023-04-15T09:24:58;98905.03;;;15.44;63.49
78431;BME280;67727;50.236;22.452;2023-04-15T09:27:35;98906.10;;;15.67;61.06
78431;BME280;67727;50.236;22.452;2023-04-15T09:30:14;98905.77;;;15.67;60.70
78431;BME280;67727;50.236;22.452;2023-04-15T09:32:55;98905.04;;;15.67;61.10
78431;BME280;67727;50.236;22.452;2023-04-15T09:35:37;98903.52;;;15.63;61.08
78431;BME280;67727;50.236;22.452;2023-04-15T09:38:09;98907.61;;;15.57;59.64
78431;BME280;67727;50.236;22.452;2023-04-15T09:40:40;98909.10;;;15.44;59.67
78431;BME280;67727;50.236;22.452;2023-04-15T09:43:10;98912.90;;;15.34;58.81
78431;BME280;67727;50.236;22.452;2023-04-15T09:45:52;98913.41;;;15.28;58.84
78431;BME280;67727;50.236;22.452;2023-04-15T09:48:27;98909.20;;;15.32;60.15
78431;BME280;67727;50.236;22.452;2023-04-15T09:51:08;98912.38;;;15.43;59.78
78431;BME280;67727;50.236;22.452;2023-04-15T09:53:38;98910.46;;;15.49;59.01
78431;BME280;67727;50.236;22.452;2023-04-15T09:56:12;98904.41;;;15.51;59.09
78431;BME280;67727;50.236;22.452;2023-04-15T09:58:45;98901.54;;;15.59;58.69
78431;BME280;67727;50.236;22.452;2023-04-15T10:01:17;98899.19;;;15.67;58.57
78431;BME280;67727;50.236;22.452;2023-04-15T10:03:59;98896.84;;;15.78;57.87
78431;BME280;67727;50.236;22.452;2023-04-15T10:06:41;98898.04;;;15.81;57.59
78431;BME280;67727;50.236;22.452;2023-04-15T10:09:29;98897.50;;;15.83;58.27
78431;BME280;67727;50.236;22.452;2023-04-15T10:12:06;98895.83;;;15.86;57.12
78431;BME280;67727;50.236;22.452;2023-04-15T10:14:41;98895.77;;;15.82;57.55
78431;BME280;67727;50.236;22.452;2023-04-15T10:17:21;98901.13;;;15.78;57.22
78431;BME280;67727;50.236;22.452;2023-04-15T10:19:53;98895.79;;;15.72;56.88
78431;BME280;67727;50.236;22.452;2023-04-15T10:22:38;98899.42;;;15.68;56.20
78431;BME280;67727;50.236;22.452;2023-04-15T10:25:17;98894.27;;;15.57;55.47
78431;BME280;67727;50.236;22.452;2023-04-15T10:27:53;98891.33;;;15.46;55.91
78431;BME280;67727;50.236;22.452;2023-04-15T10:30:33;98893.73;;;15.39;55.80
78431;BME280;67727;50.236;22.452;2023-04-15T10:36:01;98893.42;;;15.55;57.05
78431;BME280;67727;50.236;22.452;2023-04-15T10:38:45;98894.27;;;15.88;58.04
78431;BME280;67727;50.236;22.452;2023-04-15T10:41:39;98900.05;;;16.25;56.58
78431;BME280;67727;50.236;22.452;2023-04-15T10:44:34;98897.69;;;16.48;55.85
78431;BME280;67727;50.236;22.452;2023-04-15T10:47:09;98899.13;;;16.70;55.35
78431;BME280;67727;50.236;22.452;2023-04-15T10:49:43;98895.80;;;16.84;54.20
78431;BME280;67727;50.236;22.452;2023-04-15T10:52:32;98893.98;;;16.88;51.78
78431;BME280;67727;50.236;22.452;2023-04-15T10:55:25;98891.43;;;16.86;51.45
78431;BME280;67727;50.236;22.452;2023-04-15T10:58:01;98890.88;;;16.79;52.78
78431;BME280;67727;50.236;22.452;2023-04-15T11:00:41;98888.23;;;16.69;50.51
78431;BME280;67727;50.236;22.452;2023-04-15T11:03:38;98887.27;;;16.49;51.08
78431;BME280;67727;50.236;22.452;2023-04-15T11:09:49;98887.67;;;16.20;51.76
78431;BME280;67727;50.236;22.452;2023-04-15T11:12:36;98891.23;;;16.16;51.44
78431;BME280;67727;50.236;22.452;2023-04-15T11:15:55;98892.50;;;16.15;51.95
78431;BME280;67727;50.236;22.452;2023-04-15T11:19:09;98892.52;;;16.38;52.80
78431;BME280;67727;50.236;22.452;2023-04-15T11:22:11;98894.30;;;16.55;51.62
78431;BME280;67727;50.236;22.452;2023-04-15T11:27:59;98882.06;;;16.68;51.64
78431;BME280;67727;50.236;22.452;2023-04-15T11:30:51;98886.13;;;16.66;50.27
78431;BME280;67727;50.236;22.452;2023-04-15T11:33:36;98887.69;;;16.51;52.09
78431;BME280;67727;50.236;22.452;2023-04-15T11:36:27;98886.25;;;16.57;51.95
78431;BME280;67727;50.236;22.452;2023-04-15T11:39:14;98885.77;;;16.72;51.33
78431;BME280;67727;50.236;22.452;2023-04-15T11:42:00;98884.45;;;16.85;50.32
78431;BME280;67727;50.236;22.452;2023-04-15T11:44:35;98885.13;;;17.00;51.83
78431;BME280;67727;50.236;22.452;2023-04-15T11:50:32;98887.73;;;16.99;48.00
78431;BME280;67727;50.236;22.452;2023-04-15T11:53:13;98884.78;;;16.93;48.36
78431;BME280;67727;50.236;22.452;2023-04-15T11:55:51;98894.39;;;16.95;50.22
78431;BME280;67727;50.236;22.452;2023-04-15T11:58:40;98896.03;;;16.91;50.40
78431;BME280;67727;50.236;22.452;2023-04-15T12:07:26;98905.78;;;16.49;49.68
78431;BME280;67727;50.236;22.452;2023-04-15T12:10:08;98908.86;;;16.29;49.48
78431;BME280;67727;50.236;22.452;2023-04-15T12:12:47;98914.02;;;16.12;50.03
78431;BME280;67727;50.236;22.452;2023-04-15T12:15:26;98915.04;;;15.90;50.70
78431;BME280;67727;50.236;22.452;2023-04-15T12:18:21;98918.15;;;15.59;51.74
78431;BME280;67727;50.236;22.452;2023-04-15T12:21:13;98923.80;;;15.33;52.51
78431;BME280;67727;50.236;22.452;2023-04-15T12:24:04;98924.42;;;15.11;53.35
78431;BME280;67727;50.236;22.452;2023-04-15T12:26:55;98929.48;;;14.93;53.76
78431;BME280;67727;50.236;22.452;2023-04-15T12:29:34;98931.00;;;14.77;54.60
78431;BME280;67727;50.236;22.452;2023-04-15T12:32:26;98929.52;;;14.65;55.01
78431;BME280;67727;50.236;22.452;2023-04-15T12:35:00;98934.50;;;14.46;55.84
78431;BME280;67727;50.236;22.452;2023-04-15T12:37:53;98936.52;;;14.26;56.76
78431;BME280;67727;50.236;22.452;2023-04-15T12:40:40;98938.69;;;14.07;57.19
78431;BME280;67727;50.236;22.452;2023-04-15T12:43:29;98943.83;;;13.89;57.98
78431;BME280;67727;50.236;22.452;2023-04-15T12:46:12;98948.66;;;13.78;59.37
78431;BME280;67727;50.236;22.452;2023-04-15T12:48:50;98959.33;;;13.69;60.72
78431;BME280;67727;50.236;22.452;2023-04-15T12:51:27;98969.55;;;13.61;61.12
78431;BME280;67727;50.236;22.452;2023-04-15T12:54:04;98972.87;;;13.52;61.80
78431;BME280;67727;50.236;22.452;2023-04-15T12:56:36;98977.36;;;13.47;62.09
78431;BME280;67727;50.236;22.452;2023-04-15T12:59:13;98977.96;;;13.42;63.07
78431;BME280;67727;50.236;22.452;2023-04-15T13:02:08;98982.76;;;13.40;63.01
78431;BME280;67727;50.236;22.452;2023-04-15T13:04:41;98983.98;;;13.30;63.05
78431;BME280;67727;50.236;22.452;2023-04-15T13:07:26;98988.88;;;13.21;63.68
78431;BME280;67727;50.236;22.452;2023-04-15T13:10:20;98987.70;;;13.05;64.44
78431;BME280;67727;50.236;22.452;2023-04-15T13:12:51;98993.54;;;12.96;64.77
78431;BME280;67727;50.236;22.452;2023-04-15T13:15:22;98999.45;;;12.88;64.42
78431;BME280;67727;50.236;22.452;2023-04-15T13:17:56;98998.08;;;12.79;64.06
78431;BME280;67727;50.236;22.452;2023-04-15T13:20:40;99001.98;;;12.70;64.04
78431;BME280;67727;50.236;22.452;2023-04-15T13:23:22;99006.53;;;12.64;65.07
78431;BME280;67727;50.236;22.452;2023-04-15T13:25:58;99009.69;;;12.61;65.16
78431;BME280;67727;50.236;22.452;2023-04-15T13:28:30;99013.27;;;12.59;66.19
78431;BME280;67727;50.236;22.452;2023-04-15T13:31:03;99015.95;;;12.61;65.86
78431;BME280;67727;50.236;22.452;2023-04-15T13:33:42;99023.17;;;12.67;65.40
78431;BME280;67727;50.236;22.452;2023-04-15T13:36:16;99029.44;;;12.68;66.83
78431;BME280;67727;50.236;22.452;2023-04-15T13:38:48;99034.38;;;12.60;67.49
78431;BME280;67727;50.236;22.452;2023-04-15T13:44:40;99048.27;;;12.48;68.26
78431;BME280;67727;50.236;22.452;2023-04-15T13:47:25;99051.29;;;12.37;67.31
78431;BME280;67727;50.236;22.452;2023-04-15T13:50:01;99058.52;;;12.31;68.11
78431;BME280;67727;50.236;22.452;2023-04-15T13:52:46;99059.67;;;12.29;68.17
78431;BME280;67727;50.236;22.452;2023-04-15T13:55:20;99065.46;;;12.33;68.01
78431;BME280;67727;50.236;22.452;2023-04-15T13:57:53;99069.12;;;12.42;67.92
78431;BME280;67727;50.236;22.452;2023-04-15T14:00:28;99073.75;;;12.49;67.51
78431;BME280;67727;50.236;22.452;2023-04-15T14:02:55;99071.89;;;12.52;66.93
78431;BME280;67727;50.236;22.452;2023-04-15T14:05:36;99073.21;;;12.56;66.58
78431;BME280;67727;50.236;22.452;2023-04-15T14:08:11;99073.21;;;12.64;66.91
78431;BME280;67727;50.236;22.452;2023-04-15T14:10:50;99075.66;;;12.72;66.19
78431;BME280;67727;50.236;22.452;2023-04-15T14:13:34;99078.89;;;12.81;65.92
78431;BME280;67727;50.236;22.452;2023-04-15T14:16:19;99090.70;;;12.87;66.32
78431;BME280;67727;50.236;22.452;2023-04-15T14:19:04;99091.08;;;12.90;66.33
78431;BME280;67727;50.236;22.452;2023-04-15T14:21:59;99093.00;;;12.91;65.80
78431;BME280;67727;50.236;22.452;2023-04-15T14:24:44;99098.08;;;12.89;65.73
78431;BME280;67727;50.236;22.452;2023-04-15T14:27:31;99100.54;;;12.84;65.85
78431;BME280;67727;50.236;22.452;2023-04-15T14:30:24;99105.23;;;12.77;65.75
78431;BME280;67727;50.236;22.452;2023-04-15T14:33:05;99106.50;;;12.69;65.44
78431;BME280;67727;50.236;22.452;2023-04-15T14:35:48;99107.29;;;12.58;65.23
78431;BME280;67727;50.236;22.452;2023-04-15T14:38:19;99109.31;;;12.46;65.30
78431;BME280;67727;50.236;22.452;2023-04-15T14:41:06;99109.88;;;12.35;65.65
78431;BME280;67727;50.236;22.452;2023-04-15T14:43:48;99115.76;;;12.30;66.19
78431;BME280;67727;50.236;22.452;2023-04-15T14:46:24;99122.20;;;12.26;66.35
78431;BME280;67727;50.236;22.452;2023-04-15T14:49:04;99118.64;;;12.22;66.28
78431;BME280;67727;50.236;22.452;2023-04-15T14:51:43;99130.08;;;12.19;66.68
78431;BME280;67727;50.236;22.452;2023-04-15T14:54:12;99137.18;;;12.14;67.32